createdAt,value
2023-03-26T00:00:11.638Z,8.90
2023-03-26T00:05:15.065Z,6.20
2023-03-26T00:10:17.019Z,8.60
2023-03-26T00:15:18.995Z,6.40
2023-03-26T00:20:20.668Z,6.20
2023-03-26T00:25:23.882Z,6.70
2023-03-26T00:30:26.142Z,7.70
2023-03-26T00:35:29.581Z,7.10
2023-03-26T00:40:32.107Z,6.30
2023-03-26T00:45:33.621Z,6.40
2023-03-26T00:50:35.596Z,7.50
2023-03-26T00:55:37.454Z,5.80
2023-03-26T01:00:46.840Z,6.00
2023-03-26T01:05:53.013Z,5.90
2023-03-26T01:11:03.493Z,6.80
2023-03-26T01:16:20.206Z,5.50
2023-03-26T01:21:30.490Z,6.20
2023-03-26T01:26:32.059Z,4.90
2023-03-26T01:31:43.627Z,5.40
2023-03-26T01:36:53.634Z,8.10
2023-03-26T01:42:02.951Z,5.70
2023-03-26T01:47:06.446Z,5.70
2023-03-26T01:52:16.614Z,5.70
2023-03-26T01:57:27.357Z,5.50
2023-03-26T02:02:44.768Z,5.10
2023-03-26T02:08:05.529Z,5.50
2023-03-26T02:13:07.347Z,6.60
2023-03-26T02:18:13.548Z,5.70
2023-03-26T02:23:15.810Z,5.20
2023-03-26T02:28:17.298Z,4.90
2023-03-26T02:33:18.805Z,4.00
2023-03-26T02:38:20.897Z,4.40
2023-03-26T02:43:22.767Z,4.50
2023-03-26T02:48:24.282Z,4.40
2023-03-26T02:53:29.981Z,4.80
2023-03-26T02:58:31.914Z,5.20
2023-03-26T03:03:34.594Z,4.30
2023-03-26T03:08:36.295Z,4.30
2023-03-26T03:13:37.871Z,4.30
2023-03-26T03:18:39.496Z,4.00
2023-03-26T03:23:41.032Z,3.50
2023-03-26T03:28:43.424Z,3.50
2023-03-26T03:33:46.700Z,3.20
2023-03-26T03:38:49.050Z,2.80
2023-03-26T03:43:52.253Z,3.20
2023-03-26T03:48:53.794Z,3.40
2023-03-26T03:53:55.940Z,3.40
2023-03-26T03:58:58.480Z,3.50
2023-03-26T04:04:00.703Z,3.00
2023-03-26T04:09:02.563Z,3.80
2023-03-26T04:14:04.138Z,3.70
2023-03-26T04:19:05.690Z,3.90
2023-03-26T04:24:07.441Z,4.40
2023-03-26T04:29:12.993Z,3.40
2023-03-26T04:34:26.428Z,4.10
2023-03-26T04:39:29.398Z,3.90
2023-03-26T04:44:32.390Z,3.20
2023-03-26T04:49:33.919Z,3.80
2023-03-26T04:54:36.269Z,3.80
2023-03-26T04:59:37.768Z,5.20
2023-03-26T05:04:43.953Z,4.50
2023-03-26T05:09:45.736Z,4.20
2023-03-26T05:14:47.549Z,3.80
2023-03-26T05:19:49.236Z,3.40
2023-03-26T05:24:51.320Z,3.60
2023-03-26T05:29:52.826Z,3.20
2023-03-26T05:34:54.349Z,2.90
2023-03-26T05:39:56.334Z,3.10
2023-03-26T05:44:57.834Z,3.10
2023-03-26T05:49:59.521Z,2.70
2023-03-26T05:55:01.618Z,3.60
2023-03-26T06:00:06.263Z,3.40
2023-03-26T06:05:08.620Z,3.60
2023-03-26T06:10:10.978Z,3.00
2023-03-26T06:15:20.040Z,3.50
2023-03-26T06:20:21.607Z,3.10
2023-03-26T06:25:23.134Z,3.80
2023-03-26T06:30:24.734Z,2.80
2023-03-26T06:35:26.552Z,2.40
2023-03-26T06:40:29.084Z,2.00
2023-03-26T06:45:33.117Z,2.30
2023-03-26T06:50:34.666Z,2.40
2023-03-26T06:55:36.180Z,2.40
2023-03-26T07:00:38.073Z,2.90
2023-03-26T07:05:42.694Z,2.10
2023-03-26T07:10:44.300Z,2.00
2023-03-26T07:15:46.367Z,2.50
2023-03-26T07:20:48.300Z,3.50
2023-03-26T07:25:50.472Z,3.10
2023-03-26T07:31:27.288Z,2.70
2023-03-26T07:36:47.270Z,1.70
2023-03-26T07:42:16.485Z,2.60
2023-03-26T07:47:29.863Z,2.00
2023-03-26T07:52:31.740Z,2.40
2023-03-26T07:57:50.202Z,2.70
2023-03-26T08:03:34.674Z,2.30
2023-03-26T08:08:50.999Z,2.80
2023-03-26T08:14:14.485Z,2.70
2023-03-26T08:19:22.540Z,3.50
2023-03-26T08:24:39.028Z,2.90
2023-03-26T08:30:01.712Z,2.80
2023-03-26T08:35:04.499Z,2.40
2023-03-26T08:40:07.176Z,2.30
2023-03-26T08:45:40.369Z,2.40
2023-03-26T08:50:59.345Z,2.40
2023-03-26T08:56:42.340Z,2.40
2023-03-26T09:02:24.372Z,2.30
2023-03-26T09:07:48.964Z,2.70
2023-03-26T09:13:06.348Z,2.40
2023-03-26T09:18:32.603Z,2.10
2023-03-26T09:24:03.489Z,2.20
2023-03-26T09:29:32.295Z,2.20
2023-03-26T09:35:11.883Z,2.30
2023-03-26T09:40:20.618Z,1.80
2023-03-26T09:45:53.018Z,1.70
2023-03-26T09:51:12.076Z,1.70
2023-03-26T09:56:26.476Z,1.40
2023-03-26T10:02:08.594Z,1.80
2023-03-26T10:07:45.015Z,1.50
2023-03-26T10:12:57.712Z,1.40
2023-03-26T10:18:30.591Z,1.30
2023-03-26T10:23:34.811Z,1.40
2023-03-26T10:28:56.935Z,1.40
2023-03-26T10:34:28.883Z,1.20
2023-03-26T10:39:46.995Z,1.20
2023-03-26T10:45:17.902Z,1.60
2023-03-26T10:50:57.340Z,1.40
2023-03-26T10:56:16.814Z,1.60
2023-03-26T11:01:28.958Z,1.30
2023-03-26T11:06:41.962Z,1.40
2023-03-26T11:11:48.388Z,1.20
2023-03-26T11:17:09.040Z,1.40
2023-03-26T11:22:41.405Z,1.20
2023-03-26T11:27:53.104Z,1.50
2023-03-26T11:32:59.870Z,1.50
2023-03-26T11:38:17.272Z,1.40
2023-03-26T11:43:26.613Z,1.40
2023-03-26T11:48:33.333Z,1.40
2023-03-26T11:53:38.726Z,1.50
2023-03-26T11:59:01.213Z,1.30
2023-03-26T12:04:11.179Z,1.40
2023-03-26T12:09:17.720Z,1.10
2023-03-26T12:14:24.566Z,1.40
2023-03-26T12:19:29.154Z,1.40
2023-03-26T12:24:36.444Z,1.50
2023-03-26T12:29:38.386Z,1.10
2023-03-26T12:34:40.749Z,1.30
2023-03-26T12:40:09.450Z,1.30
2023-03-26T12:45:07.141Z,1.60
2023-03-26T12:50:14.646Z,1.30
2023-03-26T12:55:45.906Z,1.10
2023-03-26T13:00:57.171Z,0.90
2023-03-26T13:06:06.967Z,1.00
2023-03-26T13:11:30.642Z,1.10
2023-03-26T13:16:48.587Z,1.10
2023-03-26T13:22:24.777Z,1.20
2023-03-26T13:27:42.013Z,1.40
2023-03-26T13:33:15.901Z,1.20
2023-03-26T13:38:40.727Z,1.30
2023-03-26T13:43:48.288Z,1.10
2023-03-26T13:49:05.552Z,1.60
2023-03-26T13:54:09.900Z,2.00
2023-03-26T13:59:40.634Z,1.20
2023-03-26T14:04:49.563Z,1.20
2023-03-26T14:10:01.828Z,1.10
2023-03-26T14:15:26.674Z,1.10
2023-03-26T14:20:56.560Z,1.20
2023-03-26T14:26:19.818Z,1.20
2023-03-26T14:31:51.498Z,1.40
2023-03-26T14:37:27.031Z,1.40
2023-03-26T14:42:37.399Z,1.40
2023-03-26T14:47:55.483Z,1.40
2023-03-26T14:53:01.792Z,1.30
2023-03-26T14:58:36.848Z,1.20
2023-03-26T15:04:16.855Z,1.40
2023-03-26T15:09:56.372Z,1.40
2023-03-26T15:14:57.890Z,1.40
2023-03-26T15:20:36.844Z,1.50
2023-03-26T15:26:16.042Z,1.50
2023-03-26T15:31:37.305Z,1.90
2023-03-26T15:37:17.696Z,1.20
2023-03-26T15:42:52.400Z,1.50
2023-03-26T15:48:12.451Z,1.80
2023-03-26T15:53:26.638Z,2.10
2023-03-26T15:58:44.191Z,3.00
2023-03-26T16:04:06.021Z,3.20
2023-03-26T16:09:40.417Z,3.80
2023-03-26T16:15:20.137Z,3.00
2023-03-26T16:20:35.291Z,2.80
2023-03-26T16:25:54.635Z,2.70
2023-03-26T16:31:23.486Z,3.50
2023-03-26T16:36:35.523Z,4.20
2023-03-26T16:41:39.854Z,3.20
2023-03-26T16:47:13.875Z,3.20
2023-03-26T16:52:34.571Z,2.80
2023-03-26T16:57:45.935Z,2.90
2023-03-26T17:03:13.106Z,4.60
2023-03-26T17:08:14.938Z,5.30
2023-03-26T17:13:55.450Z,7.80
2023-03-26T17:19:28.172Z,6.50
2023-03-26T17:24:55.870Z,6.00
2023-03-26T17:30:23.883Z,6.20
2023-03-26T17:35:45.076Z,11.10
2023-03-26T17:40:55.203Z,14.60
2023-03-26T17:46:02.876Z,21.20
2023-03-26T17:51:33.638Z,18.60
2023-03-26T17:56:37.877Z,12.10
2023-03-26T18:01:44.420Z,14.50
2023-03-26T18:07:16.718Z,16.00
2023-03-26T18:12:41.420Z,17.30
2023-03-26T18:17:46.286Z,27.00
2023-03-26T18:22:49.476Z,25.50
2023-03-26T18:27:51.492Z,18.70
2023-03-26T18:33:00.992Z,17.30
2023-03-26T18:38:04.098Z,17.40
2023-03-26T18:43:06.125Z,11.90
2023-03-26T18:48:10.541Z,12.70
2023-03-26T18:53:29.878Z,19.00
2023-03-26T18:58:39.157Z,21.00
2023-03-26T19:03:44.642Z,19.80
2023-03-26T19:08:48.262Z,18.60
2023-03-26T19:14:04.488Z,20.30
2023-03-26T19:19:07.573Z,18.90
2023-03-26T19:24:12.040Z,17.90
2023-03-26T19:29:17.344Z,19.00
2023-03-26T19:34:31.681Z,19.00
2023-03-26T19:39:44.083Z,24.30
2023-03-26T19:44:46.312Z,17.70
2023-03-26T19:49:51.268Z,15.00
2023-03-26T19:54:59.125Z,10.50
2023-03-26T20:00:07.903Z,8.80
2023-03-26T20:05:19.557Z,9.90
2023-03-26T20:10:21.136Z,10.70
2023-03-26T20:15:25.730Z,11.90
2023-03-26T20:20:30.692Z,9.40
2023-03-26T20:25:33.961Z,8.50
2023-03-26T20:30:38.036Z,10.30
2023-03-26T20:35:39.881Z,10.60
2023-03-26T20:40:42.402Z,8.70
2023-03-26T20:45:45.901Z,8.10
2023-03-26T20:50:50.764Z,7.00
2023-03-26T20:55:52.575Z,7.10
2023-03-26T21:00:56.955Z,8.00
2023-03-26T21:06:04.073Z,8.90
2023-03-26T21:11:16.114Z,11.30
2023-03-26T21:16:28.592Z,8.80
2023-03-26T21:21:47.652Z,9.40
2023-03-26T21:27:12.906Z,8.40
2023-03-26T21:32:15.097Z,10.40
2023-03-26T21:37:19.057Z,10.10
2023-03-26T21:42:20.905Z,9.40
2023-03-26T21:47:23.252Z,9.70
2023-03-26T21:52:25.389Z,9.60
2023-03-26T21:57:45.388Z,10.40
2023-03-26T22:03:08.409Z,9.50
2023-03-26T22:08:25.059Z,9.50
2023-03-26T22:13:27.308Z,11.60
2023-03-26T22:18:30.121Z,14.70
2023-03-26T22:23:36.708Z,13.50
2023-03-26T22:28:38.427Z,11.80
2023-03-26T22:33:43.477Z,12.90
2023-03-26T22:38:45.552Z,11.90
2023-03-26T22:43:47.434Z,13.40
2023-03-26T22:48:49.374Z,11.20
2023-03-26T22:53:52.075Z,11.00
2023-03-26T22:58:53.578Z,11.40
2023-03-26T23:03:55.096Z,10.30
2023-03-26T23:08:57.162Z,10.90
2023-03-26T23:13:59.188Z,9.80
2023-03-26T23:19:00.734Z,10.10
2023-03-26T23:24:02.754Z,10.50
2023-03-26T23:29:05.193Z,10.60
2023-03-26T23:34:07.042Z,11.60
2023-03-26T23:39:09.391Z,13.70
2023-03-26T23:44:14.499Z,13.90
2023-03-26T23:49:16.239Z,12.40
2023-03-26T23:54:19.166Z,11.90
2023-03-26T23:59:21.056Z,11.50
